Terminal Aerodrome Forecast
Issued by NWS

Home | Current Version | Previous Version | Text Only | Print | Product List | Glossary Off
Versions: 1 2 3 4 5 6 7 8 9 10 11 12 13 14 15 16 17 18 19 20 21 22 23 24 25 26

848
FTUS43 KABR 221139 AAE
TAFMBG
TAF AMD
KMBG 221139Z 2212/2312 31009KT 3SM BR OVC004
     FM221700 30009KT P6SM OVC010
     FM221900 30009KT P6SM BKN020
     FM222200 30008KT P6SM SCT040
     FM230800 32004KT P6SM BKN080=

USA.gov is the U.S. government's official web portal to all federal, state and local government web resources and services.